WetterOnline ( http://www.wetteronline.de )

Wetter aktuell Blaustein

Aktuelles Wetter: Ulm-Mähringen (592m)

6-stündlich | Neueste Meldungen
Ortszeit Temperatur Wetter
So, 22.07. 8:00 15.8° C leichter Regen
So, 22.07. 2:00 15.5° C Sprühregen
Sa, 21.07. 20:00 17.3° C Sprühregen
Sa, 21.07. 14:00 17.9° C Regen
Sa, 21.07. 8:00 16.3° C leichter Regen
Sa, 21.07. 2:00 16.2° C wolkig
Fr, 20.07. 20:00 20.2° C bedeckt
Fr, 20.07. 14:00 -° C starker Regen
Ortszeit Temperatur Wetter
So, 22.07. 8:00 15.8° C leichter Regen
So, 22.07. 7:50 15.8° C leichter Regen
So, 22.07. 7:40 15.7° C leichter Regen
So, 22.07. 7:30 15.6° C leichter Regen
So, 22.07. 7:20 15.6° C leichter Regen
So, 22.07. 7:10 15.5° C leichter Regen
So, 22.07. 7:00 15.4° C leichter Regen
So, 22.07. 6:30 15.2° C leichter Regen
So, 22.07. 6:00 15.3° C leichter Regen
So, 22.07. 5:30 15.3° C leichter Regen
So, 22.07. 5:00 15.4° C leichter Regen
Ortszeit Relative Feuchte Sichtweite
So, 22.07. 8:00 97% 8 km
So, 22.07. 2:00 98% 10 km
Sa, 21.07. 20:00 91% 14 km
Sa, 21.07. 14:00 81% 15 km
Sa, 21.07. 8:00 93% 19 km
Sa, 21.07. 2:00 90% 23 km
Fr, 20.07. 20:00 61% 50 km
Fr, 20.07. 14:00 - 4.8 km
Ortszeit Relative Feuchte Sichtweite
So, 22.07. 8:00 97% 8 km
So, 22.07. 7:50 97% -
So, 22.07. 7:40 97% -
So, 22.07. 7:30 97% 6 km
So, 22.07. 7:20 97% -
So, 22.07. 7:10 98% -
So, 22.07. 7:00 98% 6 km
So, 22.07. 6:30 99% 4.9 km
So, 22.07. 6:00 98% 6 km
So, 22.07. 5:30 99% 5.0 km
So, 22.07. 5:00 98% 10 km
Ortszeit Niederschlagsmenge Niederschlagsart
So, 22.07. 8:00 1 l/m2 in 12 Std. Regen
So, 22.07. 2:00 0.2 l/m2 in 6 Std. Regen
Sa, 21.07. 20:00 7 l/m2 in 12 Std. Regen
Sa, 21.07. 14:00 2 l/m2 in 6 Std. Regen
Sa, 21.07. 8:00 2 l/m2 in 12 Std. Regen
Sa, 21.07. 2:00 0.1 l/m2 in 6 Std. Regen
Fr, 20.07. 20:00 3 l/m2 in 12 Std. Regen
Fr, 20.07. 14:00 0.2 l/m2 in 6 Std. Regen
Ortszeit Niederschlagsmenge Niederschlagsart
So, 22.07. 8:00 0.3 l/m2 in 1 Std. Regen
So, 22.07. 7:50 keine Meldung -
So, 22.07. 7:40 keine Meldung -
So, 22.07. 7:30 0.2 l/m2 in 1 Std. -
So, 22.07. 7:20 keine Meldung -
So, 22.07. 7:10 keine Meldung -
So, 22.07. 7:00 0.7 l/m2 in 1 Std. Regen
So, 22.07. 6:30 0.3 l/m2 in 1 Std. -
So, 22.07. 6:00 0.1 l/m2 in 1 Std. Regen
So, 22.07. 5:30 0.1 l/m2 in 1 Std. -
So, 22.07. 5:00 0.1 l/m2 in 1 Std. Regen
Ortszeit Stärke Spitze Richtung
km/h Bft. km/h Grad Sektor
So, 22.07. 8:00 6 1 9 220° SW
So, 22.07. 2:00 6 1 13 230° SW
Sa, 21.07. 20:00 7 2 25 260° W
Sa, 21.07. 14:00 4 1 14 340° N
Sa, 21.07. 8:00 7 2 18 200° S
Sa, 21.07. 2:00 7 2 36 190° S
Fr, 20.07. 20:00 18 3 40 290° W
Fr, 20.07. 14:00 18 3 32 270° W
Ortszeit Stärke Spitze Richtung
km/h Bft. km/h Grad Sektor
So, 22.07. 8:00 6 1 7 220° SW
So, 22.07. 7:50 6 1 - 220° SW
So, 22.07. 7:40 6 1 - 220° SW
So, 22.07. 7:30 4 1 7 230° SW
So, 22.07. 7:20 4 1 - 230° SW
So, 22.07. 7:10 4 1 - 230° SW
So, 22.07. 7:00 4 1 7 230° SW
So, 22.07. 6:30 4 1 7 230° SW
So, 22.07. 6:00 4 1 7 220° SW
So, 22.07. 5:30 4 1 4 230° SW
So, 22.07. 5:00 4 1 4 220° SW
Ortszeit Untergrenze Bedeckung Gattung
total tief tief mittel hoch
So, 22.07. 8:00 60 m 8/8 8/8 - - -
So, 22.07. 2:00 30 m 8/8 8/8 - - -
Sa, 21.07. 20:00 60 m 8/8 8/8 - - -
Sa, 21.07. 14:00 60 m 8/8 8/8 - - -
Sa, 21.07. 8:00 60 m 8/8 6/8 - - -
Sa, 21.07. 2:00 4500 m 7/8 3/8 - - -
Fr, 20.07. 20:00 3000 m 8/8 8/8 - - -
Fr, 20.07. 14:00 30 m 8/8 7/8 - - -
Ortszeit Bedeckungsgrad in Achtel und Wolkenuntergrenze
So, 22.07. 8:00 5(60m) 8(2700m) 8(3900m)
So, 22.07. 7:50 5(60m) 8(2700m) 8(3900m)
So, 22.07. 7:40 7(60m) 7(2100m) 8(2700m)
So, 22.07. 7:30 8(60m) 8(2100m) 8(2700m)
So, 22.07. 7:20 8(60m) 8(2100m) 8(2700m)
So, 22.07. 7:10 8(60m) 8(2100m) 8(2700m)
So, 22.07. 7:00 8(60m) 8(2100m) 8(2700m)
So, 22.07. 6:30 8(60m) 8(1500m) 8(2700m)
So, 22.07. 6:00 6(60m) 8(2100m) 8(2100m)
So, 22.07. 5:30 3(60m) 8(1800m)
So, 22.07. 5:00 5(60m) 8(1800m)
Ortszeit Luftdruck NN (hPa) Tendenz (hPa in 3 Std.)
So, 22.07. 8:00 1014 + 0,5
So, 22.07. 2:00 1014 - 0,2
Sa, 21.07. 20:00 1012 0,0
Sa, 21.07. 14:00 1013 + 0,2
Sa, 21.07. 8:00 1012 - 0,3
Sa, 21.07. 2:00 1012 - 0,3
Fr, 20.07. 20:00 1012 + 0,4
Fr, 20.07. 14:00 1014 + 0,3
Ortszeit Luftdruck NN (hPa) Tendenz (hPa in 3 Std.)
So, 22.07. 8:00 1014 + 0,5
So, 22.07. 7:50 1014 keine Meldung
So, 22.07. 7:40 1014 keine Meldung
So, 22.07. 7:30 1014 + 0,4
So, 22.07. 7:20 1014 keine Meldung
So, 22.07. 7:10 1014 keine Meldung
So, 22.07. 7:00 1014 + 0,2
So, 22.07. 6:30 1013 0,0
So, 22.07. 6:00 1013 - 0,1
So, 22.07. 5:30 1013 - 0,2
So, 22.07. 5:00 1013 - 0,4
Ortszeit Schneehöhe (cm)
So, 22.07. 8:00 -
So, 22.07. 2:00 -
Sa, 21.07. 20:00 -
Sa, 21.07. 14:00 -
Sa, 21.07. 8:00 -
Sa, 21.07. 2:00 -
Fr, 20.07. 20:00 -
Fr, 20.07. 14:00 -
Ortszeit Schneehöhe (cm)
So, 22.07. 8:00 -
So, 22.07. 7:50 -
So, 22.07. 7:40 -
So, 22.07. 7:30 -
So, 22.07. 7:20 -
So, 22.07. 7:10 -
So, 22.07. 7:00 -
So, 22.07. 6:30 -
So, 22.07. 6:00 -
So, 22.07. 5:30 -
So, 22.07. 5:00 -
Link zu dieser Seite / Seite empfehlen

Das Wetter in ...